Cinnaminson, New Jersey
Current Conditions -  °F | °C
As of 9:54 PM on Saturday 22 Nov 2014 (Local Time) from KPNE Reporting Station
Overcast Overcast  
Wind Chill: 39°   Ceiling: 12000
Heat Index: 44°   Visibility: 10mi
Dew Point: 21°   Wind: 9mph
Humidity: 40%   Direction: 220°SW
Pressure: 30.26"   Gusts: NA
Location:  40°N, 74.99°W
Report Text: KPNE 230254Z AUTO 22008KT 10SM OVC120 07/M06 A3026 RMK AO2 SLP246 T00671061 58013 TSNO
Loading
Personal Weather Stations






























Interactive Weather Map New forecast layout! Learn more

10-Day Weather Forecast

Advertisements
Track Severe Weather on mobile